createdAt,value
2023-01-13T00:02:53.969Z,9.75
2023-01-13T00:05:55.475Z,9.82
2023-01-13T00:08:57.781Z,9.83
2023-01-13T00:11:59.308Z,9.86
2023-01-13T00:15:00.830Z,9.91
2023-01-13T00:18:02.437Z,9.97
2023-01-13T00:21:11.446Z,9.97
2023-01-13T00:24:12.979Z,9.97
2023-01-13T00:27:14.582Z,9.98
2023-01-13T00:30:16.355Z,10.01
2023-01-13T00:33:18.193Z,10.03
2023-01-13T00:36:20.692Z,10.02
2023-01-13T00:39:22.232Z,10.02
2023-01-13T00:42:42.229Z,9.97
2023-01-13T00:45:44.015Z,10.02
2023-01-13T00:48:47.027Z,9.98
2023-01-13T00:51:48.577Z,10.01
2023-01-13T00:54:50.110Z,9.96
2023-01-13T00:57:51.693Z,9.98
2023-01-13T01:00:53.303Z,9.95
2023-01-13T01:03:55.321Z,9.94
2023-01-13T01:06:56.819Z,10.00
2023-01-13T01:09:58.376Z,9.95
2023-01-13T01:12:59.864Z,9.92
2023-01-13T01:16:06.860Z,9.89
2023-01-13T01:19:08.495Z,9.85
2023-01-13T01:22:10.099Z,9.81
2023-01-13T01:25:11.730Z,9.87
2023-01-13T01:28:13.323Z,9.84
2023-01-13T01:31:20.653Z,9.76
2023-01-13T01:34:22.220Z,9.74
2023-01-13T01:37:23.728Z,9.75
2023-01-13T01:40:27.143Z,9.78
2023-01-13T01:44:00.296Z,9.77
2023-01-13T01:47:02.068Z,9.77
2023-01-13T01:50:04.695Z,9.80
2023-01-13T01:53:13.825Z,9.83
2023-01-13T01:56:17.047Z,9.76
2023-01-13T01:59:18.767Z,9.79
2023-01-13T02:02:20.826Z,9.78
2023-01-13T02:05:22.902Z,9.76
2023-01-13T02:08:25.078Z,9.80
2023-01-13T02:11:54.892Z,9.80
2023-01-13T02:15:03.021Z,9.74
2023-01-13T02:18:16.763Z,9.75
2023-01-13T02:21:26.982Z,9.70
2023-01-13T02:24:56.633Z,9.72
2023-01-13T02:28:26.449Z,9.71
2023-01-13T02:31:44.644Z,9.71
2023-01-13T02:35:00.176Z,9.72
2023-01-13T02:38:02.901Z,9.66
2023-01-13T02:41:29.056Z,9.62
2023-01-13T02:44:42.720Z,9.60
2023-01-13T02:47:47.767Z,9.61
2023-01-13T02:50:59.711Z,9.56
2023-01-13T02:54:07.475Z,9.57
2023-01-13T02:57:11.793Z,9.60
2023-01-13T03:00:15.507Z,9.62
2023-01-13T03:03:17.101Z,9.59
2023-01-13T03:06:30.802Z,9.59
2023-01-13T03:09:55.510Z,9.51
2023-01-13T03:13:08.187Z,9.53
2023-01-13T03:16:28.280Z,9.48
2023-01-13T03:19:39.206Z,9.43
2023-01-13T03:22:49.090Z,9.43
2023-01-13T03:26:01.857Z,9.43
2023-01-13T03:29:22.020Z,9.46
2023-01-13T03:32:28.813Z,9.52
2023-01-13T03:35:47.228Z,9.46
2023-01-13T03:38:53.901Z,9.51
2023-01-13T03:42:01.471Z,9.51
2023-01-13T03:45:15.639Z,9.53
2023-01-13T03:48:20.998Z,9.47
2023-01-13T03:51:27.708Z,9.49
2023-01-13T03:54:33.907Z,9.47
2023-01-13T03:57:42.893Z,9.44
2023-01-13T04:00:52.262Z,9.46
2023-01-13T04:04:00.263Z,9.42
2023-01-13T04:07:23.255Z,9.38
2023-01-13T04:10:34.507Z,9.28
2023-01-13T04:13:40.081Z,9.30
2023-01-13T04:16:42.109Z,9.31
2023-01-13T04:19:43.645Z,9.36
2023-01-13T04:22:45.231Z,9.36
2023-01-13T04:25:47.404Z,9.36
2023-01-13T04:28:49.070Z,9.39
2023-01-13T04:31:50.650Z,9.37
2023-01-13T04:34:52.239Z,9.35
2023-01-13T04:37:53.813Z,9.29
2023-01-13T04:40:55.336Z,9.32
2023-01-13T04:43:56.914Z,9.32
2023-01-13T04:46:58.822Z,9.27
2023-01-13T04:50:00.348Z,9.34
2023-01-13T04:53:02.047Z,9.28
2023-01-13T04:56:03.691Z,9.33
2023-01-13T04:59:05.401Z,9.36
2023-01-13T05:02:08.970Z,9.37
2023-01-13T05:05:10.729Z,9.35
2023-01-13T05:08:12.307Z,9.30
2023-01-13T05:11:32.587Z,9.32
2023-01-13T05:14:52.380Z,9.33
2023-01-13T05:17:54.037Z,9.29
2023-01-13T05:20:55.739Z,9.29
2023-01-13T05:24:16.475Z,9.30
2023-01-13T05:27:18.530Z,9.27
2023-01-13T05:30:31.092Z,9.31
2023-01-13T05:33:34.881Z,9.29
2023-01-13T05:36:37.859Z,9.28
2023-01-13T05:40:00.470Z,9.27
2023-01-13T05:43:21.164Z,9.26
2023-01-13T05:46:22.850Z,9.22
2023-01-13T05:49:24.950Z,9.23
2023-01-13T05:52:26.628Z,9.22
2023-01-13T05:55:28.159Z,9.20
2023-01-13T05:58:29.707Z,9.23
2023-01-13T06:01:34.270Z,9.18
2023-01-13T06:04:35.851Z,9.24
2023-01-13T06:07:37.456Z,9.25
2023-01-13T06:10:39.236Z,9.23
2023-01-13T06:13:40.837Z,9.19
2023-01-13T06:16:42.406Z,9.26
2023-01-13T06:19:44.006Z,9.27
2023-01-13T06:22:48.046Z,9.30
2023-01-13T06:26:22.994Z,9.31
2023-01-13T06:29:24.566Z,9.29
2023-01-13T06:32:32.500Z,9.27
2023-01-13T06:35:37.593Z,9.28
2023-01-13T06:38:42.923Z,9.27
2023-01-13T06:42:04.078Z,9.27
2023-01-13T06:45:06.033Z,9.26
2023-01-13T06:48:07.838Z,9.23
2023-01-13T06:51:09.459Z,9.24
2023-01-13T06:54:11.002Z,9.26
2023-01-13T06:57:12.577Z,9.28
2023-01-13T07:00:15.742Z,9.25
2023-01-13T07:03:18.776Z,9.24
2023-01-13T07:06:20.415Z,9.32
2023-01-13T07:09:22.029Z,9.24
2023-01-13T07:12:23.773Z,9.15
2023-01-13T07:15:30.057Z,9.15
2023-01-13T07:18:33.117Z,9.22
2023-01-13T07:21:34.671Z,9.25
2023-01-13T07:24:36.136Z,9.19
2023-01-13T07:27:38.112Z,9.25
2023-01-13T07:30:39.844Z,9.25
2023-01-13T07:33:41.464Z,9.21
2023-01-13T07:36:42.964Z,9.23
2023-01-13T07:39:45.409Z,9.28
2023-01-13T07:43:05.376Z,9.31
2023-01-13T07:46:07.183Z,9.37
2023-01-13T07:49:09.128Z,9.37
2023-01-13T07:52:10.711Z,9.36
2023-01-13T07:55:12.265Z,9.31
2023-01-13T07:58:13.765Z,9.27
2023-01-13T08:01:16.656Z,9.12
2023-01-13T08:04:18.577Z,8.85
2023-01-13T08:07:20.173Z,8.77
2023-01-13T08:10:21.708Z,8.54
2023-01-13T08:13:23.460Z,8.16
2023-01-13T08:16:25.157Z,7.69
2023-01-13T08:19:26.831Z,7.53
2023-01-13T08:22:31.033Z,7.54
2023-01-13T08:25:32.948Z,7.55
2023-01-13T08:28:34.960Z,7.56
2023-01-13T08:31:36.516Z,7.60
2023-01-13T08:34:38.012Z,7.65
2023-01-13T08:37:40.009Z,7.80
2023-01-13T08:40:41.667Z,7.86
2023-01-13T08:43:43.260Z,7.90
2023-01-13T08:46:44.796Z,7.99
2023-01-13T08:49:46.346Z,8.09
2023-01-13T08:52:47.876Z,8.21
2023-01-13T08:55:49.468Z,8.30
2023-01-13T08:58:51.125Z,8.43
2023-01-13T09:01:52.781Z,8.56
2023-01-13T09:04:55.327Z,8.67
2023-01-13T09:07:56.824Z,8.77
2023-01-13T09:10:58.606Z,8.87
2023-01-13T09:14:02.421Z,8.94
2023-01-13T09:17:04.946Z,9.13
2023-01-13T09:20:06.807Z,9.37
2023-01-13T09:23:10.569Z,9.71
2023-01-13T09:26:16.752Z,10.02
2023-01-13T09:29:18.716Z,10.37
2023-01-13T09:32:20.264Z,10.61
2023-01-13T09:35:21.789Z,10.74
2023-01-13T09:38:23.418Z,10.87
2023-01-13T09:41:45.965Z,10.86
2023-01-13T09:45:06.078Z,10.70
2023-01-13T09:48:24.607Z,10.39
2023-01-13T09:52:26.736Z,10.12
2023-01-13T09:55:34.059Z,10.00
2023-01-13T09:58:36.999Z,9.93
2023-01-13T10:02:17.055Z,9.76
2023-01-13T10:05:38.997Z,9.68
2023-01-13T10:08:43.305Z,9.73
2023-01-13T10:12:05.937Z,9.82
2023-01-13T10:15:19.834Z,10.02
2023-01-13T10:18:38.965Z,10.12
2023-01-13T10:22:04.387Z,10.21
2023-01-13T10:25:20.964Z,10.30
2023-01-13T10:28:23.972Z,10.43
2023-01-13T10:31:26.356Z,10.39
2023-01-13T10:34:29.180Z,10.56
2023-01-13T10:37:31.150Z,10.58
2023-01-13T10:40:32.753Z,10.50
2023-01-13T10:43:34.320Z,10.62
2023-01-13T10:46:51.982Z,10.85
2023-01-13T10:50:13.080Z,10.87
2023-01-13T10:53:22.927Z,10.84
2023-01-13T10:56:34.993Z,10.97
2023-01-13T10:59:36.598Z,11.27
2023-01-13T11:02:38.728Z,11.32
2023-01-13T11:05:40.846Z,11.40
2023-01-13T11:08:47.822Z,11.41
2023-01-13T11:11:55.548Z,11.76
2023-01-13T11:15:00.287Z,11.59
2023-01-13T11:18:09.381Z,11.67
2023-01-13T11:21:34.313Z,11.70
2023-01-13T11:25:01.788Z,11.66
2023-01-13T11:28:27.253Z,11.35
2023-01-13T11:31:38.064Z,11.48
2023-01-13T11:34:41.944Z,11.52
2023-01-13T11:37:50.325Z,11.52
2023-01-13T11:40:52.210Z,11.67
2023-01-13T11:44:13.086Z,11.13
2023-01-13T11:47:20.323Z,10.65
2023-01-13T11:50:33.933Z,10.37
2023-01-13T11:53:52.931Z,10.22
2023-01-13T11:57:22.389Z,10.15
2023-01-13T12:00:43.696Z,10.48
2023-01-13T12:04:00.134Z,10.96
2023-01-13T12:07:23.284Z,11.01
2023-01-13T12:10:30.983Z,10.72
2023-01-13T12:13:57.163Z,10.40
2023-01-13T12:17:01.298Z,10.34
2023-01-13T12:20:24.257Z,10.45
2023-01-13T12:23:51.766Z,10.17
2023-01-13T12:27:00.600Z,9.92
2023-01-13T12:30:13.860Z,10.02
2023-01-13T12:33:43.385Z,10.20
2023-01-13T12:37:09.479Z,10.24
2023-01-13T12:40:48.831Z,10.28
2023-01-13T12:44:11.358Z,10.52
2023-01-13T12:47:34.209Z,10.85
2023-01-13T12:50:41.034Z,11.08
2023-01-13T12:53:42.909Z,11.35
2023-01-13T12:56:45.323Z,10.93
2023-01-13T13:00:05.020Z,10.45
2023-01-13T13:03:13.656Z,10.16
2023-01-13T13:06:22.981Z,9.78
2023-01-13T13:09:36.605Z,9.51
2023-01-13T13:12:59.814Z,9.36
2023-01-13T13:16:26.510Z,8.66
2023-01-13T13:19:31.200Z,7.95
2023-01-13T13:22:44.594Z,7.47
2023-01-13T13:26:20.073Z,7.13
2023-01-13T13:29:58.372Z,6.93
2023-01-13T13:33:11.271Z,6.79
2023-01-13T13:36:58.479Z,6.98
2023-01-13T13:40:27.652Z,6.86
2023-01-13T13:43:56.974Z,6.84
2023-01-13T13:47:02.828Z,7.10
2023-01-13T13:50:20.882Z,7.24
2023-01-13T13:53:25.884Z,7.43
2023-01-13T13:56:29.176Z,7.50
2023-01-13T13:59:31.087Z,7.52
2023-01-13T14:02:38.607Z,7.48
2023-01-13T14:05:51.899Z,7.44
2023-01-13T14:08:53.387Z,7.37
2023-01-13T14:12:09.084Z,7.46
2023-01-13T14:15:34.982Z,7.43
2023-01-13T14:18:45.962Z,7.42
2023-01-13T14:21:48.300Z,7.43
2023-01-13T14:24:55.385Z,7.43
2023-01-13T14:27:59.541Z,7.49
2023-01-13T14:31:01.382Z,7.62
2023-01-13T14:34:31.221Z,7.57
2023-01-13T14:37:54.428Z,7.51
2023-01-13T14:40:56.373Z,7.52
2023-01-13T14:44:00.419Z,7.60
2023-01-13T14:47:03.978Z,7.64
2023-01-13T14:50:07.538Z,7.76
2023-01-13T14:53:28.006Z,7.76
2023-01-13T14:56:55.566Z,7.77
2023-01-13T15:00:08.063Z,7.77
2023-01-13T15:03:17.161Z,7.78
2023-01-13T15:06:24.431Z,7.79
2023-01-13T15:09:29.690Z,7.82
2023-01-13T15:12:36.210Z,7.80
2023-01-13T15:15:39.791Z,7.81
2023-01-13T15:18:41.371Z,7.81
2023-01-13T15:21:42.943Z,7.88
2023-01-13T15:24:44.486Z,7.90
2023-01-13T15:27:50.577Z,7.99
2023-01-13T15:30:54.450Z,8.06
2023-01-13T15:33:56.463Z,7.97
2023-01-13T15:36:58.000Z,7.90
2023-01-13T15:39:59.522Z,7.80
2023-01-13T15:43:19.640Z,7.75
2023-01-13T15:46:40.368Z,7.62
2023-01-13T15:49:46.273Z,7.56
2023-01-13T15:52:50.581Z,7.54
2023-01-13T15:55:57.717Z,7.51
2023-01-13T15:59:20.407Z,7.49
2023-01-13T16:02:22.657Z,7.49
2023-01-13T16:05:24.813Z,7.45
2023-01-13T16:08:26.432Z,7.43
2023-01-13T16:11:27.996Z,7.41
2023-01-13T16:14:29.585Z,7.38
2023-01-13T16:17:35.027Z,7.37
2023-01-13T16:20:36.755Z,7.35
2023-01-13T16:23:38.309Z,7.34
2023-01-13T16:26:40.080Z,7.32
2023-01-13T16:29:42.455Z,7.33
2023-01-13T16:32:44.068Z,7.30
2023-01-13T16:36:11.814Z,7.32
2023-01-13T16:39:20.840Z,7.27
2023-01-13T16:42:22.574Z,7.25
2023-01-13T16:45:24.886Z,7.23
2023-01-13T16:48:26.558Z,7.29
2023-01-13T16:51:28.396Z,7.27
2023-01-13T16:54:29.937Z,7.36
2023-01-13T16:57:31.505Z,7.39
2023-01-13T17:00:34.037Z,7.40
2023-01-13T17:03:44.392Z,7.45
2023-01-13T17:07:00.444Z,7.50
2023-01-13T17:10:02.092Z,7.51
2023-01-13T17:13:14.863Z,7.45
2023-01-13T17:16:21.118Z,7.20
2023-01-13T17:23:13.449Z,6.43
2023-01-13T17:26:27.424Z,6.20
2023-01-13T17:29:29.078Z,5.96
2023-01-13T17:32:30.707Z,5.83
2023-01-13T17:35:32.330Z,5.84
2023-01-13T17:38:36.889Z,5.79
2023-01-13T17:41:38.487Z,5.85
2023-01-13T17:44:40.170Z,5.87
2023-01-13T17:47:41.817Z,5.88
2023-01-13T17:50:47.542Z,5.88
2023-01-13T17:53:49.177Z,5.95
2023-01-13T17:56:50.785Z,5.93
2023-01-13T17:59:52.316Z,5.91
2023-01-13T18:02:54.501Z,5.90
2023-01-13T18:06:02.700Z,5.94
2023-01-13T18:09:04.365Z,5.91
2023-01-13T18:12:06.197Z,5.86
2023-01-13T18:15:08.177Z,5.81
2023-01-13T18:18:09.704Z,5.73
2023-01-13T18:21:38.289Z,5.68
2023-01-13T18:24:58.580Z,5.66
2023-01-13T18:28:03.297Z,5.65
2023-01-13T18:31:05.176Z,5.66
2023-01-13T18:34:06.861Z,5.66
2023-01-13T18:37:12.256Z,5.72
2023-01-13T18:40:14.175Z,5.76
2023-01-13T18:43:15.718Z,5.84
2023-01-13T18:46:17.363Z,5.84
2023-01-13T18:49:19.064Z,5.92
2023-01-13T18:52:21.711Z,5.94
2023-01-13T18:55:25.134Z,6.04
2023-01-13T18:58:27.873Z,6.05
2023-01-13T19:01:29.934Z,6.08
2023-01-13T19:04:32.639Z,6.15
2023-01-13T19:07:35.701Z,6.12
2023-01-13T19:10:39.765Z,6.12
2023-01-13T19:13:47.598Z,6.10
2023-01-13T19:16:49.118Z,6.09
2023-01-13T19:19:55.377Z,6.16
2023-01-13T19:22:56.947Z,6.21
2023-01-13T19:26:06.340Z,6.15
2023-01-13T19:29:08.736Z,6.08
2023-01-13T19:32:10.720Z,5.95
2023-01-13T19:35:17.184Z,5.76
2023-01-13T19:38:18.747Z,5.65
2023-01-13T19:41:38.883Z,5.49
2023-01-13T19:44:59.356Z,5.47
2023-01-13T19:48:02.304Z,5.72
2023-01-13T19:51:04.457Z,5.63
2023-01-13T19:54:05.959Z,5.69
2023-01-13T19:57:07.521Z,5.58
2023-01-13T20:00:10.070Z,5.67
2023-01-13T20:03:20.507Z,5.89
2023-01-13T20:06:22.146Z,6.02
2023-01-13T20:09:23.692Z,6.03
2023-01-13T20:12:29.198Z,6.02
2023-01-13T20:15:31.650Z,6.03
2023-01-13T20:18:36.421Z,6.01
2023-01-13T20:21:39.711Z,6.00
2023-01-13T20:24:41.589Z,5.88
2023-01-13T20:27:43.912Z,5.89
2023-01-13T20:30:45.684Z,5.78
2023-01-13T20:33:50.444Z,5.79
2023-01-13T20:36:52.180Z,5.84
2023-01-13T20:39:55.275Z,5.93
2023-01-13T20:42:57.009Z,5.98
2023-01-13T20:45:58.691Z,6.06
2023-01-13T20:49:00.303Z,6.01
2023-01-13T20:52:03.471Z,6.02
2023-01-13T20:55:07.047Z,5.97
2023-01-13T20:58:08.842Z,5.89
2023-01-13T21:01:10.407Z,5.93
2023-01-13T21:04:12.103Z,5.95
2023-01-13T21:07:13.903Z,5.96
2023-01-13T21:10:18.809Z,6.01
2023-01-13T21:13:39.036Z,6.04
2023-01-13T21:16:40.754Z,6.05
2023-01-13T21:19:42.342Z,6.10
2023-01-13T21:22:48.454Z,6.12
2023-01-13T21:25:50.022Z,6.21
2023-01-13T21:28:56.196Z,6.22
2023-01-13T21:31:57.844Z,6.25
2023-01-13T21:34:59.383Z,6.20
2023-01-13T21:38:01.063Z,6.04
2023-01-13T21:41:06.253Z,5.85
2023-01-13T21:44:34.250Z,5.65
2023-01-13T21:47:51.966Z,5.57
2023-01-13T21:50:53.502Z,5.59
2023-01-13T21:53:55.872Z,5.67
2023-01-13T21:56:57.498Z,5.70
2023-01-13T21:59:59.114Z,5.77
2023-01-13T22:03:05.642Z,5.83
2023-01-13T22:06:07.302Z,5.81
2023-01-13T22:09:08.879Z,5.83
2023-01-13T22:12:10.655Z,5.82
2023-01-13T22:15:14.958Z,5.82
2023-01-13T22:18:18.097Z,5.82
2023-01-13T22:21:20.075Z,5.90
2023-01-13T22:24:21.575Z,5.91
2023-01-13T22:27:26.165Z,6.00
2023-01-13T22:30:32.116Z,5.96
2023-01-13T22:33:33.653Z,6.05
2023-01-13T22:36:35.197Z,6.04
2023-01-13T22:39:36.808Z,6.04
2023-01-13T22:42:42.502Z,6.03
2023-01-13T22:45:44.074Z,6.04
2023-01-13T22:48:46.088Z,6.06
2023-01-13T22:51:47.766Z,6.08
2023-01-13T22:54:49.311Z,6.12
2023-01-13T22:57:50.964Z,6.16
2023-01-13T23:00:53.244Z,6.18
2023-01-13T23:03:55.429Z,6.15
2023-01-13T23:06:57.053Z,6.08
2023-01-13T23:09:58.577Z,5.95
2023-01-13T23:13:00.135Z,5.69
2023-01-13T23:16:03.972Z,5.57
2023-01-13T23:19:06.964Z,5.52
2023-01-13T23:22:08.482Z,5.50
2023-01-13T23:25:10.883Z,5.50
2023-01-13T23:28:12.594Z,5.51
2023-01-13T23:31:19.554Z,5.54
2023-01-13T23:34:21.223Z,5.62
2023-01-13T23:37:22.830Z,5.66
2023-01-13T23:40:24.570Z,5.71
2023-01-13T23:43:29.863Z,5.77
2023-01-13T23:46:32.704Z,5.81
2023-01-13T23:49:34.591Z,5.80
2023-01-13T23:52:36.202Z,5.86
2023-01-13T23:55:37.713Z,5.91
2023-01-13T23:58:39.812Z,5.94
